TimeCDT,TemperatureF,Dew PointF,Humidity,Sea Level PressureIn,VisibilityMPH,Wind Direction,Wind SpeedMPH,Gust SpeedMPH,PrecipitationIn,Events,Conditions,WindDirDegrees,DateUTC
12:15 AM,64.4,60.8,88,29.97,10.0,East,10.4,-,N/A,Thunderstorm,Mostly Cloudy,80,2013-05-27 05:15:00
12:54 AM,64.0,61.0,90,29.97,3.0,ENE,9.2,18.4,0.04,Rain-Thunderstorm,Thunderstorms and Rain,60,2013-05-27 05:54:00
1:01 AM,64.4,60.8,88,29.97,4.0,NNE,8.1,18.4,0.01,Rain-Thunderstorm,Light Thunderstorms and Rain,30,2013-05-27 06:01:00
1:11 AM,62.6,60.8,94,29.98,1.8,NNE,13.8,19.6,0.22,Rain-Thunderstorm,Heavy Thunderstorms and Rain,30,2013-05-27 06:11:00
1:27 AM,62.6,62.6,100,29.98,2.0,NE,12.7,-,0.56,Rain-Thunderstorm,Heavy Thunderstorms and Rain,50,2013-05-27 06:27:00
1:36 AM,64.4,62.6,94,29.98,1.8,NE,9.2,-,0.73,Rain-Thunderstorm,Heavy Thunderstorms and Rain,50,2013-05-27 06:36:00
1:45 AM,64.4,62.6,94,29.96,1.2,East,8.1,-,0.89,Rain-Thunderstorm,Heavy Thunderstorms and Rain,80,2013-05-27 06:45:00
1:51 AM,64.4,62.6,94,29.96,2.5,East,5.8,-,0.95,Rain-Thunderstorm,Light Thunderstorms and Rain,90,2013-05-27 06:51:00
1:54 AM,64.0,63.0,96,29.95,2.5,East,10.4,-,0.99,Rain-Thunderstorm,Heavy Thunderstorms and Rain,80,2013-05-27 06:54:00
2:08 AM,64.4,62.6,94,29.95,5.0,East,11.5,-,0.02,Rain-Thunderstorm,Light Rain,80,2013-05-27 07:08:00
2:20 AM,64.4,62.6,94,29.96,2.5,NE,6.9,-,0.13,Rain-Thunderstorm,Heavy Thunderstorms and Rain,50,2013-05-27 07:20:00
2:35 AM,64.4,62.6,94,29.96,4.0,ENE,11.5,-,0.22,Rain-Thunderstorm,Heavy Rain,60,2013-05-27 07:35:00
2:54 AM,64.0,62.1,93,29.93,5.0,ENE,16.1,-,0.24,Rain,Rain,70,2013-05-27 07:54:00
3:04 AM,62.6,62.6,100,29.93,5.0,East,12.7,-,0.03,Rain-Thunderstorm,Rain,80,2013-05-27 08:04:00
3:19 AM,62.6,60.8,94,29.91,6.0,East,10.4,-,0.06,Rain,Light Rain,100,2013-05-27 08:19:00
3:54 AM,63.0,61.0,93,29.82,10.0,East,18.4,27.6,0.07,Rain,Light Rain,100,2013-05-27 08:54:00
4:39 AM,62.6,60.8,94,29.92,10.0,SE,6.9,-,0.00,,Overcast,140,2013-05-27 09:39:00
4:54 AM,63.0,61.0,93,29.90,10.0,SE,5.8,-,0.00,,Overcast,130,2013-05-27 09:54:00
5:08 AM,62.6,60.8,94,29.92,10.0,North,4.6,-,0.00,Rain,Light Rain,350,2013-05-27 10:08:00
5:23 AM,62.6,60.8,94,29.92,10.0,Calm,Calm,-,0.00,Rain,Light Rain,0,2013-05-27 10:23:00
5:49 AM,62.6,60.8,94,29.93,10.0,Calm,Calm,-,0.00,,Overcast,0,2013-05-27 10:49:00
5:54 AM,63.0,60.1,90,29.93,8.0,West,3.5,-,0.00,,Overcast,280,2013-05-27 10:54:00
6:27 AM,62.6,60.8,94,29.95,2.0,West,6.9,-,N/A,,Overcast,270,2013-05-27 11:27:00
6:34 AM,62.6,60.8,94,29.95,1.5,West,5.8,-,N/A,,Overcast,280,2013-05-27 11:34:00
6:54 AM,64.0,62.1,93,29.95,3.0,WNW,11.5,-,0.01,,Overcast,300,2013-05-27 11:54:00
7:12 AM,64.4,62.6,94,29.96,10.0,West,5.8,-,N/A,,Overcast,280,2013-05-27 12:12:00
7:21 AM,64.4,62.6,94,29.96,10.0,WNW,8.1,-,N/A,,Overcast,290,2013-05-27 12:21:00
7:47 AM,64.4,62.6,94,29.97,10.0,NNW,9.2,-,N/A,,Overcast,330,2013-05-27 12:47:00
7:54 AM,64.9,62.1,90,29.96,10.0,North,9.2,-,N/A,,Mostly Cloudy,350,2013-05-27 12:54:00
8:00 AM,64.4,62.6,94,29.97,10.0,North,6.9,-,N/A,,Scattered Clouds,350,2013-05-27 13:00:00
8:54 AM,66.0,63.0,90,29.94,10.0,NNE,8.1,-,N/A,,Partly Cloudy,20,2013-05-27 13:54:00
9:54 AM,69.1,62.1,78,29.91,10.0,Calm,Calm,-,N/A,,Mostly Cloudy,0,2013-05-27 14:54:00
10:54 AM,69.1,63.0,81,29.90,10.0,SE,5.8,-,N/A,,Clear,140,2013-05-27 15:54:00
11:31 AM,69.8,64.4,83,29.92,10.0,Calm,Calm,-,N/A,Thunderstorm,Mostly Cloudy,0,2013-05-27 16:31:00
11:54 AM,66.9,64.0,90,29.95,2.0,West,8.1,18.4,0.09,Rain-Thunderstorm,Heavy Thunderstorms and Rain,270,2013-05-27 16:54:00
11:57 AM,66.2,64.4,94,29.97,0.8,WSW,5.8,-,0.08,Rain-Thunderstorm,Heavy Thunderstorms and Rain,240,2013-05-27 16:57:00
12:04 PM,66.2,64.4,94,29.98,1.0,West,10.4,-,0.10,Rain-Thunderstorm,Thunderstorms and Rain,270,2013-05-27 17:04:00
12:07 PM,66.2,64.4,94,29.98,2.0,WNW,15.0,-,0.14,Rain-Thunderstorm,Thunderstorms and Rain,290,2013-05-27 17:07:00
12:12 PM,64.4,62.6,94,29.96,0.8,WNW,16.1,20.7,0.28,Rain-Thunderstorm,Heavy Thunderstorms and Rain,300,2013-05-27 17:12:00
12:21 PM,64.4,62.6,94,29.97,1.0,WNW,6.9,20.7,0.34,Rain-Thunderstorm,Heavy Thunderstorms and Rain,300,2013-05-27 17:21:00
12:35 PM,64.4,62.6,94,29.95,2.5,NNW,5.8,-,0.38,Rain-Thunderstorm,Thunderstorms and Rain,340,2013-05-27 17:35:00
12:42 PM,64.4,62.6,94,29.95,3.0,NNW,5.8,-,0.40,Rain-Thunderstorm,Thunderstorms and Rain,330,2013-05-27 17:42:00
12:54 PM,64.9,63.0,93,29.96,3.0,WNW,5.8,-,0.44,Rain,Rain,290,2013-05-27 17:54:00
1:03 PM,64.4,62.6,94,29.95,3.0,NW,4.6,-,0.02,Rain-Thunderstorm,Light Rain,310,2013-05-27 18:03:00
1:17 PM,64.4,62.6,94,29.95,2.5,WNW,5.8,-,0.06,Rain,Rain,300,2013-05-27 18:17:00
1:51 PM,64.4,62.6,94,29.90,7.0,SE,4.6,-,0.18,Rain,Light Rain,130,2013-05-27 18:51:00
1:54 PM,64.0,62.1,93,29.89,7.0,SE,5.8,-,0.18,Rain,Light Rain,130,2013-05-27 18:54:00
2:12 PM,64.4,62.6,94,29.90,6.0,South,13.8,-,0.02,Rain-Thunderstorm,Light Thunderstorms and Rain,180,2013-05-27 19:12:00
2:27 PM,64.4,62.6,94,29.85,5.0,South,20.7,25.3,0.06,Rain,Light Rain,170,2013-05-27 19:27:00
2:54 PM,66.0,62.1,87,29.81,10.0,South,20.7,-,0.09,Rain,Light Rain,190,2013-05-27 19:54:00
3:54 PM,66.9,60.1,79,29.64,10.0,SSE,18.4,34.5,0.01,,Clear,150,2013-05-27 20:54:00
4:54 PM,68.0,62.1,81,29.77,10.0,WNW,6.9,-,N/A,,Clear,290,2013-05-27 21:54:00
5:54 PM,70.0,62.1,76,29.78,10.0,Calm,Calm,-,N/A,,Clear,0,2013-05-27 22:54:00
6:54 PM,72.0,62.1,71,29.79,10.0,WSW,4.6,-,N/A,,Clear,240,2013-05-27 23:54:00
7:54 PM,71.1,62.1,73,29.80,10.0,Calm,Calm,-,N/A,,Clear,0,2013-05-28 00:54:00
8:54 PM,66.9,63.0,87,29.81,10.0,SE,4.6,-,N/A,,Scattered Clouds,140,2013-05-28 01:54:00
9:54 PM,68.0,63.0,84,29.81,10.0,SSE,8.1,-,N/A,,Overcast,160,2013-05-28 02:54:00
10:54 PM,70.0,62.1,76,29.81,10.0,South,9.2,-,N/A,,Mostly Cloudy,170,2013-05-28 03:54:00
11:54 PM,70.0,63.0,78,29.80,10.0,South,11.5,-,N/A,,Mostly Cloudy,180,2013-05-28 04:54:00